createdAt,value
2022-08-10T00:02:15.133Z,101525.06
2022-08-10T00:04:42.838Z,101532.91
2022-08-10T00:07:10.556Z,101528.47
2022-08-10T00:09:50.766Z,101522.63
2022-08-10T00:12:19.634Z,101533.16
2022-08-10T00:14:48.749Z,101528.84
2022-08-10T00:17:16.477Z,101533.56
2022-08-10T00:20:04.104Z,101526.41
2022-08-10T00:22:32.103Z,101529.25
2022-08-10T00:24:59.921Z,101537.34
2022-08-10T00:27:52.935Z,101537.34
2022-08-10T00:30:16.969Z,101525.69
2022-08-10T00:32:44.708Z,101525.09
2022-08-10T00:35:12.395Z,101527.06
2022-08-10T00:37:40.134Z,101524.34
2022-08-10T00:40:09.085Z,101513.34
2022-08-10T00:42:36.858Z,101519.19
2022-08-10T00:45:04.884Z,101521.91
2022-08-10T00:47:37.356Z,101527.44
2022-08-10T00:50:06.153Z,101519.59
2022-08-10T00:52:34.639Z,101521.47
2022-08-10T00:55:03.388Z,101497.31
2022-08-10T00:57:31.132Z,101518.00
2022-08-10T01:00:00.338Z,101511.88
2022-08-10T01:02:30.187Z,101501.72
2022-08-10T01:05:01.942Z,101514.69
2022-08-10T01:07:50.381Z,101513.88
2022-08-10T01:10:25.391Z,101458.19
2022-08-10T01:12:55.059Z,101444.34
2022-08-10T01:15:25.697Z,101499.88
2022-08-10T01:17:55.022Z,101451.22
2022-08-10T01:20:31.438Z,101454.03
2022-08-10T01:23:28.917Z,101501.13
2022-08-10T01:26:30.805Z,101499.50
2022-08-10T01:29:19.451Z,101496.94
2022-08-10T01:31:51.249Z,101492.53
2022-08-10T01:34:21.013Z,101495.38
2022-08-10T01:36:50.811Z,101490.09
2022-08-10T01:39:21.443Z,101447.06
2022-08-10T01:41:49.166Z,101483.22
2022-08-10T01:44:20.035Z,101441.56
2022-08-10T01:46:56.712Z,101481.47
2022-08-10T01:49:24.032Z,101479.03
2022-08-10T01:51:53.244Z,101479.41
2022-08-10T01:54:22.334Z,101439.38
2022-08-10T01:56:51.960Z,101485.81
2022-08-10T01:59:26.997Z,101447.47
2022-08-10T02:01:58.604Z,101487.88
2022-08-10T02:04:26.802Z,101491.47
2022-08-10T02:06:55.043Z,101492.44
2022-08-10T02:09:24.904Z,101488.00
2022-08-10T02:12:06.167Z,101490.00
2022-08-10T02:14:36.732Z,101492.81
2022-08-10T02:17:07.410Z,101493.78
2022-08-10T02:19:36.879Z,101499.19
2022-08-10T02:22:36.770Z,101506.56
2022-08-10T02:24:52.593Z,101499.44
2022-08-10T02:27:20.417Z,101437.72
2022-08-10T02:29:48.961Z,101473.84
2022-08-10T02:32:36.006Z,101497.13
2022-08-10T02:35:21.758Z,101443.09
2022-08-10T02:37:51.541Z,101496.53
2022-08-10T02:45:00.566Z,101457.81
2022-08-10T02:45:20.242Z,101487.94
2022-08-10T02:46:00.923Z,101491.75
2022-08-10T02:48:33.142Z,101498.16
2022-08-10T02:51:03.214Z,101489.19
2022-08-10T02:53:54.523Z,101488.31
2022-08-10T02:56:23.317Z,101489.44
2022-08-10T02:58:54.569Z,101492.13
2022-08-10T03:01:24.514Z,101486.97
2022-08-10T03:03:57.231Z,101485.53
2022-08-10T03:06:26.607Z,101490.06
2022-08-10T03:08:54.377Z,101497.53
2022-08-10T03:12:35.170Z,101492.00
2022-08-10T03:14:12.873Z,101427.03
2022-08-10T03:16:40.577Z,101498.53
2022-08-10T03:20:34.316Z,101495.94
2022-08-10T03:21:58.084Z,101505.16
2022-08-10T03:24:33.241Z,101456.91
2022-08-10T03:27:01.471Z,101423.97
2022-08-10T03:29:29.316Z,101445.03
2022-08-10T03:31:57.034Z,101493.88
2022-08-10T03:34:33.540Z,101492.13
2022-08-10T03:37:01.727Z,101495.78
2022-08-10T03:39:29.541Z,101489.91
2022-08-10T03:41:59.844Z,101491.50
2022-08-10T03:44:29.789Z,101498.84
2022-08-10T03:46:57.278Z,101499.97
2022-08-10T03:49:26.339Z,101489.66
2022-08-10T03:51:54.056Z,101501.06
2022-08-10T03:54:21.801Z,101500.19
2022-08-10T03:56:49.542Z,101504.84
2022-08-10T03:59:17.485Z,101467.84
2022-08-10T04:02:43.940Z,101447.97
2022-08-10T04:04:34.813Z,101493.59
2022-08-10T04:07:02.550Z,101493.59
2022-08-10T04:09:53.271Z,101449.31
2022-08-10T04:12:18.988Z,101502.63
2022-08-10T04:14:51.310Z,101497.50
2022-08-10T04:18:01.257Z,101499.34
2022-08-10T04:20:14.212Z,101503.88
2022-08-10T04:22:41.926Z,101456.88
2022-08-10T04:25:10.109Z,101453.34
2022-08-10T04:27:37.821Z,101510.75
2022-08-10T04:30:06.597Z,101503.50
2022-08-10T04:32:34.467Z,101500.78
2022-08-10T04:35:02.370Z,101507.41
2022-08-10T04:37:31.432Z,101507.28
2022-08-10T04:39:59.185Z,101487.56
2022-08-10T04:42:26.922Z,101510.13
2022-08-10T04:44:54.666Z,101505.72
2022-08-10T04:47:57.351Z,101502.16
2022-08-10T04:50:10.426Z,101507.78
2022-08-10T04:52:39.488Z,101510.84
2022-08-10T04:55:07.871Z,101503.34
2022-08-10T04:57:35.762Z,101477.59
2022-08-10T05:00:03.960Z,101503.53
2022-08-10T05:02:46.661Z,101498.28
2022-08-10T05:05:14.465Z,101502.59
2022-08-10T05:07:54.108Z,101505.28
2022-08-10T05:10:25.010Z,101506.44
2022-08-10T05:12:53.086Z,101502.81
2022-08-10T05:15:23.938Z,101509.91
2022-08-10T05:18:08.162Z,101508.94
2022-08-10T05:20:37.790Z,101515.06
2022-08-10T05:23:07.453Z,101511.38
2022-08-10T05:25:38.160Z,101516.53
2022-08-10T05:28:06.918Z,101471.25
2022-08-10T05:30:34.803Z,101517.44
2022-08-10T05:33:06.582Z,101513.69
2022-08-10T05:35:56.403Z,101509.38
2022-08-10T05:38:27.490Z,101518.00
2022-08-10T05:40:55.235Z,101512.81
2022-08-10T05:43:24.025Z,101513.59
2022-08-10T05:46:17.287Z,101475.75
2022-08-10T05:48:56.520Z,101481.44
2022-08-10T05:51:26.267Z,101516.28
2022-08-10T05:54:02.248Z,101518.78
2022-08-10T05:56:54.833Z,101517.09
2022-08-10T06:00:11.246Z,101489.28
2022-08-10T06:02:33.779Z,101440.16
2022-08-10T06:04:58.289Z,101468.78
2022-08-10T06:07:27.202Z,101517.13
2022-08-10T06:09:59.379Z,101518.91
2022-08-10T06:12:30.325Z,101478.78
2022-08-10T06:15:05.230Z,101517.81
2022-08-10T06:17:33.814Z,101521.78
2022-08-10T06:20:01.758Z,101510.81
2022-08-10T06:22:32.332Z,101521.13
2022-08-10T06:27:49.503Z,101477.44
2022-08-10T06:30:19.958Z,101520.72
2022-08-10T06:32:49.105Z,101516.53
2022-08-10T06:35:16.852Z,101489.16
2022-08-10T06:37:50.712Z,101524.16
2022-08-10T06:40:21.076Z,101529.31
2022-08-10T06:42:49.617Z,101482.03
2022-08-10T06:45:18.918Z,101529.50
2022-08-10T06:47:47.782Z,101525.34
2022-08-10T06:50:17.497Z,101516.63
2022-08-10T06:53:05.052Z,101499.88
2022-08-10T06:55:49.812Z,101528.22
2022-08-10T06:58:23.629Z,101522.59
2022-08-10T07:00:54.950Z,101532.03
2022-08-10T07:03:22.721Z,101537.06
2022-08-10T07:05:51.548Z,101487.88
2022-08-10T07:08:19.778Z,101488.88
2022-08-10T07:10:49.038Z,101515.31
2022-08-10T07:14:14.489Z,101529.91
2022-08-10T07:16:05.454Z,101529.66
2022-08-10T07:18:33.225Z,101528.47
2022-08-10T07:21:02.148Z,101524.91
2022-08-10T07:23:59.770Z,101522.09
2022-08-10T07:26:19.183Z,101454.72
2022-08-10T07:28:48.251Z,101519.16
2022-08-10T07:31:54.911Z,101517.56
2022-08-10T07:34:07.081Z,101515.34
2022-08-10T07:36:34.642Z,101516.84
2022-08-10T07:39:02.577Z,101517.56
2022-08-10T07:41:32.085Z,101518.81
2022-08-10T07:43:59.845Z,101480.91
2022-08-10T07:46:27.765Z,101502.16
2022-08-10T07:48:58.134Z,101492.47
2022-08-10T07:51:25.871Z,101413.31
2022-08-10T07:53:54.691Z,101515.16
2022-08-10T07:56:47.382Z,101516.38
2022-08-10T07:59:14.118Z,101505.09
2022-08-10T08:01:43.345Z,101458.75
2022-08-10T08:04:12.099Z,101509.56
2022-08-10T08:06:40.736Z,101504.16
2022-08-10T08:09:08.440Z,101507.59
2022-08-10T08:11:36.627Z,101458.78
2022-08-10T08:14:04.413Z,101503.78
2022-08-10T08:16:33.516Z,101499.22
2022-08-10T08:24:08.636Z,101511.03
2022-08-10T08:24:37.507Z,101497.16
2022-08-10T08:27:05.850Z,101433.63
2022-08-10T08:29:35.401Z,101492.75
2022-08-10T08:32:05.089Z,101475.84
2022-08-10T08:34:33.158Z,101495.31
2022-08-10T08:37:01.832Z,101501.94
2022-08-10T08:39:29.880Z,101507.06
2022-08-10T08:42:14.450Z,101473.84
2022-08-10T08:44:50.586Z,101497.34
2022-08-10T08:48:05.453Z,101494.00
2022-08-10T08:50:26.476Z,101499.66
2022-08-10T08:52:59.246Z,101448.06
2022-08-10T08:56:02.873Z,101488.59
2022-08-10T08:58:49.390Z,101492.16
2022-08-10T09:01:24.507Z,101451.09
2022-08-10T09:04:21.305Z,101479.44
2022-08-10T09:08:01.005Z,101478.09
2022-08-10T09:10:04.442Z,101471.44
2022-08-10T09:12:49.726Z,101472.22
2022-08-10T09:15:40.275Z,101471.00
2022-08-10T09:18:12.443Z,101468.97
2022-08-10T09:20:45.733Z,101421.66
2022-08-10T09:23:17.612Z,101473.22
2022-08-10T09:25:46.770Z,101433.09
2022-08-10T09:28:17.942Z,101470.91
2022-08-10T09:31:03.959Z,101467.69
2022-08-10T09:36:25.566Z,101453.91
2022-08-10T09:36:41.860Z,101469.22
2022-08-10T09:40:56.818Z,101456.44
2022-08-10T09:42:14.434Z,101393.75
2022-08-10T09:44:57.315Z,101465.00
2022-08-10T09:48:01.151Z,101398.50
2022-08-10T09:50:23.934Z,101453.47
2022-08-10T09:52:58.925Z,101452.41
2022-08-10T09:56:17.607Z,101443.94
2022-08-10T09:58:28.507Z,101416.72
2022-08-10T10:00:59.091Z,101440.84
2022-08-10T10:03:29.181Z,101407.19
2022-08-10T10:06:02.433Z,101438.38
2022-08-10T10:08:34.236Z,101413.66
2022-08-10T10:11:16.169Z,101425.03
2022-08-10T10:14:02.073Z,101427.19
2022-08-10T10:16:40.627Z,101364.38
2022-08-10T10:19:26.591Z,101428.03
2022-08-10T10:21:59.886Z,101360.56
2022-08-10T10:24:34.405Z,101415.78
2022-08-10T10:27:04.513Z,101410.22
2022-08-10T10:29:57.047Z,101416.38
2022-08-10T10:32:36.677Z,101407.94
2022-08-10T10:35:09.250Z,101362.06
2022-08-10T10:38:01.642Z,101398.16
2022-08-10T10:40:27.341Z,101398.72
2022-08-10T10:43:01.746Z,101394.59
2022-08-10T10:45:32.951Z,101395.28
2022-08-10T10:48:03.737Z,101392.44
2022-08-10T10:50:35.813Z,101392.16
2022-08-10T10:53:06.670Z,101397.59
2022-08-10T10:56:13.512Z,101401.28
2022-08-10T10:58:29.481Z,101387.91
2022-08-10T11:00:59.986Z,101382.91
2022-08-10T11:03:55.297Z,101384.03
2022-08-10T11:06:39.410Z,101386.75
2022-08-10T11:09:12.504Z,101342.97
2022-08-10T11:12:03.007Z,101373.94
2022-08-10T11:14:38.471Z,101382.06
2022-08-10T11:17:10.346Z,101343.41
2022-08-10T11:20:01.747Z,101352.41
2022-08-10T11:22:36.943Z,101347.41
2022-08-10T11:25:09.792Z,101389.06
2022-08-10T11:27:43.979Z,101340.44
2022-08-10T11:30:13.807Z,101388.34
2022-08-10T11:32:49.577Z,101353.53
2022-08-10T11:35:21.487Z,101378.91
2022-08-10T11:38:30.962Z,101380.50
2022-08-10T11:40:45.346Z,101329.03
2022-08-10T11:43:21.940Z,101357.09
2022-08-10T11:45:55.573Z,101338.16
2022-08-10T11:48:53.462Z,101377.09
2022-08-10T11:51:20.879Z,101338.16
2022-08-10T11:53:51.260Z,101321.19
2022-08-10T11:56:25.086Z,101346.97
2022-08-10T11:59:16.618Z,101367.06
2022-08-10T12:01:45.366Z,101355.25
2022-08-10T12:04:13.090Z,101366.97
2022-08-10T12:06:55.033Z,101321.75
2022-08-10T12:10:10.780Z,101361.56
2022-08-10T12:12:11.776Z,101357.13
2022-08-10T12:14:44.850Z,101348.25
2022-08-10T12:17:16.986Z,101348.25
2022-08-10T12:20:01.122Z,101352.69
2022-08-10T12:22:32.903Z,101296.97
2022-08-10T12:25:02.289Z,101327.91
2022-08-10T12:27:32.557Z,101299.69
2022-08-10T12:30:04.677Z,101334.19
2022-08-10T12:32:34.109Z,101333.34
2022-08-10T12:35:04.947Z,101325.06
2022-08-10T12:37:34.470Z,101285.41
2022-08-10T12:40:33.991Z,101323.75
2022-08-10T12:43:12.783Z,101315.75
2022-08-10T12:45:52.131Z,101320.34
2022-08-10T12:48:23.547Z,101273.47
2022-08-10T12:51:00.549Z,101318.38
2022-08-10T12:53:37.825Z,101291.00
2022-08-10T12:56:06.297Z,101293.69
2022-08-10T12:58:57.453Z,101309.09
2022-08-10T13:01:25.580Z,101246.09
2022-08-10T13:04:20.532Z,101304.09
2022-08-10T13:06:51.753Z,101290.13
2022-08-10T13:09:22.441Z,101295.09
2022-08-10T13:12:37.015Z,101285.13
2022-08-10T13:14:42.908Z,101286.69
2022-08-10T13:17:11.986Z,101286.69
2022-08-10T13:19:55.384Z,101284.69
2022-08-10T13:22:24.937Z,101280.28
2022-08-10T13:24:55.784Z,101282.72
2022-08-10T13:28:01.172Z,101277.97
2022-08-10T13:30:13.845Z,101273.41
2022-08-10T13:32:42.945Z,101274.28
2022-08-10T13:35:11.935Z,101274.97
2022-08-10T13:37:43.565Z,101272.97
2022-08-10T13:40:12.221Z,101262.84
2022-08-10T13:42:40.117Z,101258.28
2022-08-10T13:45:10.194Z,101162.03
2022-08-10T13:47:49.502Z,101258.69
2022-08-10T13:50:34.637Z,101263.97
2022-08-10T13:53:11.602Z,101265.38
2022-08-10T13:55:48.648Z,101261.66
2022-08-10T13:58:27.490Z,101235.47
2022-08-10T14:00:55.840Z,101209.56
2022-08-10T14:03:23.661Z,101253.78
2022-08-10T14:05:53.906Z,101247.91
2022-08-10T14:08:24.197Z,101247.91
2022-08-10T14:11:08.945Z,101234.09
2022-08-10T14:13:43.427Z,101209.16
2022-08-10T14:16:11.437Z,101231.81
2022-08-10T14:18:39.194Z,101166.34
2022-08-10T14:21:08.384Z,101239.34
2022-08-10T14:23:40.731Z,101241.75
2022-08-10T14:26:09.529Z,101236.19
2022-08-10T14:28:40.503Z,101221.31
2022-08-10T14:31:10.284Z,101229.13
2022-08-10T14:33:37.916Z,101225.56
2022-08-10T14:36:19.861Z,101229.69
2022-08-10T14:38:52.930Z,101215.84
2022-08-10T14:42:02.716Z,101218.91
2022-08-10T14:44:13.152Z,101181.78
2022-08-10T14:46:44.286Z,101155.75
2022-08-10T14:49:26.339Z,101216.31
2022-08-10T14:52:00.854Z,101221.44
2022-08-10T14:54:30.566Z,101193.69
2022-08-10T14:56:58.106Z,101218.09
2022-08-10T15:00:22.657Z,101217.78
2022-08-10T15:02:40.041Z,101175.38
2022-08-10T15:05:09.158Z,101210.78
2022-08-10T15:07:37.463Z,101211.16
2022-08-10T15:10:09.102Z,101210.16
2022-08-10T15:12:38.451Z,101202.56
2022-08-10T15:15:08.410Z,101207.84
2022-08-10T15:17:37.493Z,101205.13
2022-08-10T15:20:13.218Z,101211.94
2022-08-10T15:22:41.831Z,101209.63
2022-08-10T15:25:18.584Z,101220.16
2022-08-10T15:27:54.227Z,101209.72
2022-08-10T15:30:30.394Z,101143.38
2022-08-10T15:33:21.193Z,101190.25
2022-08-10T15:36:23.078Z,101195.34
2022-08-10T15:38:56.145Z,101171.88
2022-08-10T15:41:58.878Z,101187.78
2022-08-10T15:44:25.634Z,101177.81
2022-08-10T15:46:57.673Z,101123.84
2022-08-10T15:49:27.625Z,101186.56
2022-08-10T15:51:58.376Z,101170.44
2022-08-10T15:54:33.680Z,101184.06
2022-08-10T15:57:04.232Z,101153.38
2022-08-10T15:59:32.918Z,101188.50
2022-08-10T16:02:13.897Z,101177.47
2022-08-10T16:04:48.650Z,101144.34
2022-08-10T16:07:19.475Z,101188.41
2022-08-10T16:10:24.577Z,101159.78
2022-08-10T16:12:41.607Z,101174.00
2022-08-10T16:15:12.324Z,101180.13
2022-08-10T16:17:54.841Z,101179.63
2022-08-10T16:20:27.116Z,101129.59
2022-08-10T16:22:56.922Z,101170.16
2022-08-10T16:25:24.499Z,101171.16
2022-08-10T16:28:23.161Z,101165.22
2022-08-10T16:30:53.291Z,101166.41
2022-08-10T16:33:54.195Z,101138.16
2022-08-10T16:36:17.149Z,101128.09
2022-08-10T16:38:45.464Z,101172.25
2022-08-10T16:41:52.083Z,101170.88
2022-08-10T16:44:02.254Z,101169.03
2022-08-10T16:46:29.941Z,101166.31
2022-08-10T16:48:57.724Z,101171.44
2022-08-10T16:51:25.459Z,101164.09
2022-08-10T16:53:53.289Z,101157.69
2022-08-10T16:56:24.765Z,101160.22
2022-08-10T16:58:54.905Z,101152.03
2022-08-10T17:01:25.577Z,101168.22
2022-08-10T17:04:07.522Z,101160.22
2022-08-10T17:06:39.848Z,101151.16
2022-08-10T17:09:08.225Z,101118.66
2022-08-10T17:11:36.756Z,101161.75
2022-08-10T17:14:05.525Z,101167.94
2022-08-10T17:16:36.166Z,101129.03
2022-08-10T17:19:05.330Z,101164.03
2022-08-10T17:21:50.919Z,101148.50
2022-08-10T17:24:21.042Z,101174.75
2022-08-10T17:26:48.764Z,101183.59
2022-08-10T17:29:59.159Z,101154.97
2022-08-10T17:32:09.492Z,101168.28
2022-08-10T17:34:38.525Z,101134.84
2022-08-10T17:37:07.169Z,101161.69
2022-08-10T17:39:38.784Z,101159.78
2022-08-10T17:42:09.030Z,101138.19
2022-08-10T17:44:36.970Z,101114.97
2022-08-10T17:47:10.766Z,101150.81
2022-08-10T17:49:39.993Z,101154.19
2022-08-10T17:52:09.272Z,101124.53
2022-08-10T17:54:39.704Z,101149.09
2022-08-10T17:57:09.593Z,101145.00
2022-08-10T17:59:37.642Z,101150.03
2022-08-10T18:02:09.530Z,101154.25
2022-08-10T18:04:42.210Z,101110.94
2022-08-10T18:07:10.844Z,101150.28
2022-08-10T18:09:40.430Z,101120.59
2022-08-10T18:12:18.112Z,101144.56
2022-08-10T18:14:48.028Z,101160.38
2022-08-10T18:17:19.529Z,101160.16
2022-08-10T18:19:48.194Z,101162.50
2022-08-10T18:22:15.905Z,101160.28
2022-08-10T18:24:44.606Z,101160.88
2022-08-10T18:27:12.705Z,101160.31
2022-08-10T18:29:41.493Z,101125.47
2022-08-10T18:34:30.636Z,101095.72
2022-08-10T18:36:58.375Z,101174.78
2022-08-10T18:39:28.424Z,101179.69
2022-08-10T18:42:00.562Z,101147.59
2022-08-10T18:44:35.873Z,101174.34
2022-08-10T18:47:05.935Z,101183.66
2022-08-10T18:49:41.252Z,101169.53
2022-08-10T18:52:10.387Z,101174.41
2022-08-10T18:54:44.855Z,101154.50
2022-08-10T18:57:17.288Z,101157.09
2022-08-10T19:00:07.900Z,101175.50
2022-08-10T19:02:51.560Z,101142.97
2022-08-10T19:05:32.614Z,101179.97
2022-08-10T19:08:29.882Z,101184.69
2022-08-10T19:11:00.688Z,101185.16
2022-08-10T19:13:33.670Z,101185.28
2022-08-10T19:16:08.520Z,101192.91
2022-08-10T19:18:39.305Z,101189.50
2022-08-10T19:21:14.290Z,101142.88
2022-08-10T19:23:47.485Z,101192.81
2022-08-10T19:26:41.586Z,101199.41
2022-08-10T19:30:04.999Z,101196.13
2022-08-10T19:32:05.246Z,101192.72
2022-08-10T19:34:39.381Z,101158.31
2022-08-10T19:37:15.551Z,101163.59
2022-08-10T19:39:52.721Z,101195.34
2022-08-10T19:42:21.491Z,101198.38
2022-08-10T19:45:02.234Z,101204.91
2022-08-10T19:47:33.022Z,101194.22
2022-08-10T19:50:02.743Z,101206.25
2022-08-10T19:52:35.077Z,101205.00
2022-08-10T19:55:15.233Z,101212.22
2022-08-10T19:57:47.329Z,101204.69
2022-08-10T20:00:22.956Z,101204.69
2022-08-10T20:02:56.885Z,101189.94
2022-08-10T20:05:30.781Z,101208.00
2022-08-10T20:08:04.381Z,101209.03
2022-08-10T20:10:36.291Z,101215.56
2022-08-10T20:13:09.126Z,101198.81
2022-08-10T20:15:41.838Z,101215.19
2022-08-10T20:18:14.199Z,101189.56
2022-08-10T20:20:42.724Z,101213.63
2022-08-10T20:23:15.164Z,101179.47
2022-08-10T20:25:45.338Z,101210.38
2022-08-10T20:28:18.394Z,101207.94
2022-08-10T20:30:47.862Z,101205.25
2022-08-10T20:33:18.578Z,101192.16
2022-08-10T20:35:50.428Z,101174.09
2022-08-10T20:38:27.425Z,101203.28
2022-08-10T20:41:02.996Z,101190.75
2022-08-10T20:43:48.913Z,101196.19
2022-08-10T20:46:21.958Z,101212.00
2022-08-10T20:48:52.070Z,101209.44
2022-08-10T20:51:22.084Z,101191.50
2022-08-10T20:53:52.832Z,101207.00
2022-08-10T20:56:25.224Z,101211.72
2022-08-10T20:59:09.122Z,101205.47
2022-08-10T21:02:07.109Z,101162.47
2022-08-10T21:04:42.319Z,101187.78
2022-08-10T21:07:59.993Z,101202.47
2022-08-10T21:10:39.544Z,101206.34
2022-08-10T21:13:16.186Z,101207.28
2022-08-10T21:15:55.558Z,101201.47
2022-08-10T21:18:31.091Z,101205.03
2022-08-10T21:21:09.439Z,101198.78
2022-08-10T21:23:41.341Z,101199.06
2022-08-10T21:26:11.182Z,101179.84
2022-08-10T21:29:13.158Z,101205.59
2022-08-10T21:31:55.249Z,101212.19
2022-08-10T21:34:59.149Z,101201.34
2022-08-10T21:37:46.101Z,101103.44
2022-08-10T21:40:35.441Z,101211.59
2022-08-10T21:43:32.183Z,101206.19
2022-08-10T21:46:33.084Z,101206.47
2022-08-10T21:49:23.079Z,101202.22
2022-08-10T21:52:16.201Z,101206.75
2022-08-10T21:55:03.786Z,101206.06
2022-08-10T21:58:00.233Z,101205.34
2022-08-10T22:00:46.990Z,101202.78
2022-08-10T22:03:40.042Z,101198.53
2022-08-10T22:06:25.943Z,101196.81
2022-08-10T22:09:15.762Z,101181.72
2022-08-10T22:12:02.045Z,101200.66
2022-08-10T22:14:52.936Z,101206.22
2022-08-10T22:18:00.638Z,101163.78
2022-08-10T22:20:45.311Z,101173.78
2022-08-10T22:23:53.673Z,101203.38
2022-08-10T22:27:00.797Z,101197.97
2022-08-10T22:29:52.568Z,101202.69
2022-08-10T22:32:44.073Z,101195.41
2022-08-10T22:35:47.756Z,101194.56
2022-08-10T22:38:38.098Z,101202.97
2022-08-10T22:41:27.294Z,101206.66
2022-08-10T22:44:17.138Z,101204.94
2022-08-10T22:47:02.333Z,101207.94
2022-08-10T22:49:30.305Z,101190.13
2022-08-10T22:52:02.135Z,101194.56
2022-08-10T22:54:51.345Z,101144.00
2022-08-10T22:57:36.485Z,101198.41
2022-08-10T23:00:14.278Z,101147.66
2022-08-10T23:02:43.426Z,101190.59
2022-08-10T23:05:14.156Z,101151.81
2022-08-10T23:07:47.447Z,101191.53
2022-08-10T23:10:16.118Z,101191.94
2022-08-10T23:12:49.388Z,101199.94
2022-08-10T23:15:38.816Z,101194.09
2022-08-10T23:18:25.524Z,101197.50
2022-08-10T23:20:54.619Z,101193.25
2022-08-10T23:23:24.203Z,101186.41
2022-08-10T23:25:57.126Z,101198.78
2022-08-10T23:28:38.263Z,101201.63
2022-08-10T23:31:10.053Z,101184.28
2022-08-10T23:33:38.531Z,101191.97
2022-08-10T23:36:33.858Z,101185.69
2022-08-10T23:39:23.825Z,101180.72
2022-08-10T23:41:43.781Z,101189.84
2022-08-10T23:44:21.232Z,101141.28
2022-08-10T23:46:49.100Z,101190.81
2022-08-10T23:49:16.859Z,101133.72
2022-08-10T23:51:54.475Z,101185.69
2022-08-10T23:54:23.856Z,101190.41
2022-08-10T23:56:52.512Z,101182.44
2022-08-10T23:59:21.370Z,101183.41
